Time;durP1;ratioP1;P1;durP2;ratioP2;P2;SDS_P1;SDS_P2;PMS_P1;PMS_P2;Temp;Humidity;BMP_temperature;BMP_pressure;BME280_temperature;BME280_humidity;BME280_pressure;Samples;Min_cycle;Max_cycle;Signal;HPM_P1;HPM_P2
2023/02/28 00:00:11;;;;;;;3.72;3.17;;;0.80;99.90;;;;;;7383148;19;20313;-82
2023/02/28 00:02:39;;;;;;;3.42;2.67;;;0.80;99.90;;;;;;7382973;19;20313;-81
2023/02/28 00:05:05;;;;;;;4.80;3.30;;;0.80;99.90;;;;;;7383316;19;20323;-84
2023/02/28 00:07:31;;;;;;;4.00;3.17;;;0.90;99.90;;;;;;7384699;19;20586;-84
2023/02/28 00:09:56;;;;;;;3.85;3.35;;;0.90;99.90;;;;;;7396609;19;20308;-80
2023/02/28 00:12:22;;;;;;;6.53;3.47;;;0.80;99.90;;;;;;7363384;19;20738;-85
2023/02/28 00:14:48;;;;;;;4.40;3.30;;;0.80;99.90;;;;;;7386614;19;20350;-82
2023/02/28 00:17:14;;;;;;;4.35;3.22;;;0.70;99.90;;;;;;7393379;19;20341;-80
2023/02/28 00:19:39;;;;;;;3.92;2.75;;;0.60;99.90;;;;;;7382504;19;20344;-86
2023/02/28 00:22:05;;;;;;;5.77;2.77;;;0.50;99.90;;;;;;7387536;19;20345;-84
2023/02/28 00:24:31;;;;;;;2.70;2.40;;;0.50;99.90;;;;;;7396050;19;20327;-81
2023/02/28 00:26:56;;;;;;;3.07;2.57;;;0.50;99.90;;;;;;7395456;19;20331;-80
2023/02/28 00:29:22;;;;;;;3.88;2.63;;;0.60;99.90;;;;;;7395426;19;20716;-85
2023/02/28 00:31:47;;;;;;;3.50;2.43;;;0.50;99.90;;;;;;7393596;19;20315;-81
2023/02/28 00:34:15;;;;;;;3.20;2.70;;;0.50;99.90;;;;;;7394595;19;20312;-81
2023/02/28 00:36:45;;;;;;;3.50;2.63;;;0.60;99.90;;;;;;7392828;19;20317;-80
2023/02/28 00:39:10;;;;;;;2.75;2.35;;;0.50;99.90;;;;;;7389244;19;20962;-82
2023/02/28 00:41:43;;;;;;;3.17;2.50;;;0.50;99.90;;;;;;7386706;19;20347;-86
2023/02/28 00:44:09;;;;;;;3.88;2.65;;;0.40;99.90;;;;;;7386954;19;20370;-83
2023/02/28 00:46:40;;;;;;;2.75;2.53;;;0.40;99.90;;;;;;7389776;19;20308;-84
2023/02/28 00:49:06;;;;;;;4.87;2.70;;;0.30;99.90;;;;;;7385818;19;20341;-81
2023/02/28 00:51:32;;;;;;;5.18;2.97;;;0.30;99.90;;;;;;7387386;19;20316;-80
2023/02/28 00:53:57;;;;;;;3.05;2.72;;;0.30;99.90;;;;;;7381221;19;20899;-80
2023/02/28 00:56:23;;;;;;;4.07;2.60;;;0.20;99.90;;;;;;7379521;19;20313;-79
2023/02/28 00:58:49;;;;;;;4.68;2.50;;;0.20;99.90;;;;;;7381746;19;20883;-79
2023/02/28 01:01:14;;;;;;;3.37;2.97;;;0.20;99.90;;;;;;7381106;19;20317;-82
2023/02/28 01:03:40;;;;;;;5.05;2.92;;;0.20;99.90;;;;;;7381187;19;20356;-81
2023/02/28 01:06:11;;;;;;;3.93;2.40;;;0.20;99.90;;;;;;7379352;19;20380;-79
2023/02/28 01:08:37;;;;;;;3.95;2.90;;;0.20;99.90;;;;;;7376241;19;20333;-80
2023/02/28 01:11:11;;;;;;;3.30;2.70;;;0.20;99.90;;;;;;7380574;19;20341;-80
2023/02/28 01:13:39;;;;;;;3.27;2.50;;;0.20;99.90;;;;;;7380883;19;20373;-83
2023/02/28 01:16:05;;;;;;;3.33;2.60;;;0.20;99.90;;;;;;7376752;19;20324;-82
2023/02/28 01:18:31;;;;;;;3.72;2.20;;;0.30;99.90;;;;;;7379595;19;20352;-83
2023/02/28 01:20:56;;;;;;;3.50;2.38;;;0.30;99.90;;;;;;7382237;19;20320;-80
2023/02/28 01:23:23;;;;;;;2.77;2.30;;;0.20;99.90;;;;;;7380342;19;20367;-80
2023/02/28 01:25:52;;;;;;;2.97;2.40;;;0.20;99.90;;;;;;7378806;19;20349;-81
2023/02/28 01:28:18;;;;;;;4.18;2.50;;;0.20;99.90;;;;;;7380776;19;20323;-82
2023/02/28 01:30:48;;;;;;;3.47;2.53;;;0.20;99.90;;;;;;7380739;19;20352;-79
2023/02/28 01:33:13;;;;;;;4.47;2.97;;;0.20;99.90;;;;;;7379035;19;20305;-82
2023/02/28 01:35:39;;;;;;;2.72;2.28;;;0.20;99.90;;;;;;7379063;19;20383;-79
2023/02/28 01:38:05;;;;;;;3.50;2.67;;;0.20;99.90;;;;;;7379645;19;20320;-79
2023/02/28 01:40:30;;;;;;;3.17;2.67;;;0.30;99.90;;;;;;7379861;19;20853;-79
2023/02/28 01:42:56;;;;;;;2.67;2.33;;;0.40;99.90;;;;;;7381045;19;20392;-81
2023/02/28 01:45:25;;;;;;;2.93;2.27;;;0.40;99.90;;;;;;7380955;19;20832;-81
2023/02/28 01:47:52;;;;;;;2.60;2.40;;;0.50;99.90;;;;;;7380285;19;20336;-81
2023/02/28 01:50:19;;;;;;;4.78;2.55;;;0.50;99.90;;;;;;7380688;19;20718;-79
2023/02/28 01:52:45;;;;;;;3.90;2.90;;;0.40;99.90;;;;;;7379583;19;20356;-85
2023/02/28 01:55:11;;;;;;;3.05;2.30;;;0.40;99.90;;;;;;7381160;19;20328;-83
2023/02/28 01:57:49;;;;;;;2.90;2.40;;;0.50;99.90;;;;;;7380011;19;20312;-83
2023/02/28 02:00:17;;;;;;;4.93;2.70;;;0.50;99.90;;;;;;7377411;19;20871;-82
2023/02/28 02:02:47;;;;;;;3.15;2.70;;;0.50;99.90;;;;;;7377612;19;20439;-84
2023/02/28 02:05:24;;;;;;;4.05;3.30;;;0.50;99.90;;;;;;7379863;19;20317;-81
2023/02/28 02:08:18;;;;;;;5.07;3.30;;;0.40;99.90;;;;;;7380161;19;20328;-79
2023/02/28 02:10:50;;;;;;;6.20;3.22;;;0.30;99.90;;;;;;7277782;19;2004267;-82
2023/02/28 02:13:29;;;;;;;5.25;3.20;;;0.30;99.90;;;;;;7380569;19;20344;-79
2023/02/28 02:16:25;;;;;;;6.10;3.17;;;0.30;99.90;;;;;;7380777;19;20372;-79
2023/02/28 02:19:02;;;;;;;4.00;3.13;;;0.20;99.90;;;;;;7266409;19;2004568;-80
2023/02/28 02:21:50;;;;;;;3.03;2.60;;;0.20;99.90;;;;;;7379022;19;20313;-82
2023/02/28 02:24:37;;;;;;;3.47;2.90;;;0.30;99.90;;;;;;7273932;19;2004429;-78
2023/02/28 02:27:28;;;;;;;3.97;2.88;;;0.40;99.90;;;;;;7276780;19;2004550;-79
2023/02/28 02:30:12;;;;;;;3.75;2.88;;;0.50;99.90;;;;;;7379881;19;20843;-81
2023/02/28 02:32:57;;;;;;;5.07;3.00;;;0.60;99.90;;;;;;7282139;19;2004391;-79
2023/02/28 02:35:35;;;;;;;3.97;3.05;;;0.60;99.90;;;;;;7385984;19;20923;-81
2023/02/28 02:38:09;;;;;;;4.88;2.90;;;0.50;99.90;;;;;;7284447;19;2006833;-83
2023/02/28 02:40:54;;;;;;;4.43;3.58;;;0.40;99.90;;;;;;7372101;19;20324;-78
2023/02/28 02:43:24;;;;;;;7.28;3.33;;;0.30;99.90;;;;;;7378587;19;20353;-84
2023/02/28 02:45:52;;;;;;;4.90;3.28;;;0.20;99.90;;;;;;7380753;19;20324;-83
2023/02/28 02:48:23;;;;;;;4.22;3.03;;;0.20;99.90;;;;;;7377446;19;20320;-86
2023/02/28 02:50:52;;;;;;;4.07;3.00;;;0.20;99.90;;;;;;7391287;19;20313;-79
2023/02/28 02:53:19;;;;;;;4.13;3.10;;;0.20;99.90;;;;;;7391039;19;20308;-82
2023/02/28 02:55:47;;;;;;;4.72;3.38;;;0.20;99.90;;;;;;7390818;19;20356;-83
2023/02/28 02:58:16;;;;;;;3.95;2.95;;;0.20;99.90;;;;;;7390732;19;20988;-84
2023/02/28 03:00:46;;;;;;;3.78;3.00;;;0.20;99.90;;;;;;7389468;19;20351;-81
2023/02/28 03:03:12;;;;;;;4.50;3.83;;;0.20;99.90;;;;;;7388371;19;20328;-83
2023/02/28 03:05:48;;;;;;;3.70;3.10;;;0.10;99.90;;;;;;7385509;19;20389;-81
2023/02/28 03:08:14;;;;;;;4.60;3.20;;;0.10;99.90;;;;;;7386686;19;20377;-81
2023/02/28 03:10:45;;;;;;;5.22;3.75;;;0.10;99.90;;;;;;7385586;19;20349;-79
2023/02/28 03:13:17;;;;;;;6.13;3.63;;;0.10;99.90;;;;;;7385702;19;20328;-80
2023/02/28 03:16:20;;;;;;;5.47;3.83;;;0.00;99.90;;;;;;7385164;19;20437;-79
2023/02/28 03:18:54;;;;;;;5.50;3.90;;;-0.10;99.90;;;;;;7281498;19;2004429;-80
2023/02/28 03:21:26;;;;;;;4.80;3.47;;;-0.10;99.90;;;;;;7383597;19;20332;-79
2023/02/28 03:23:58;;;;;;;4.93;3.83;;;0.00;99.90;;;;;;7382487;19;21240;-77
2023/02/28 03:26:24;;;;;;;5.75;3.55;;;0.00;99.90;;;;;;7385839;19;20317;-81
2023/02/28 03:28:56;;;;;;;4.95;3.70;;;-0.10;99.90;;;;;;7384417;19;20345;-80
2023/02/28 03:31:33;;;;;;;5.32;3.50;;;-0.10;99.90;;;;;;7384690;19;20325;-79
2023/02/28 03:34:08;;;;;;;4.95;3.60;;;-0.10;99.90;;;;;;7383488;19;20312;-80
2023/02/28 03:36:43;;;;;;;5.38;4.00;;;-0.10;99.90;;;;;;7280841;19;2010597;-81
2023/02/28 03:39:14;;;;;;;5.07;3.60;;;-0.30;99.90;;;;;;7381520;19;20643;-80
2023/02/28 03:41:47;;;;;;;5.67;3.90;;;-0.40;99.90;;;;;;7383213;19;20368;-80
2023/02/28 03:44:18;;;;;;;4.57;3.40;;;-0.50;99.90;;;;;;7383814;19;20408;-78
2023/02/28 03:46:48;;;;;;;4.25;3.50;;;-0.50;99.90;;;;;;7382174;19;20325;-81
2023/02/28 03:49:24;;;;;;;5.68;3.40;;;-0.60;99.90;;;;;;7382469;19;20328;-80
2023/02/28 03:51:50;;;;;;;8.37;4.23;;;-0.60;99.90;;;;;;7382446;19;20320;-81
2023/02/28 03:54:18;;;;;;;5.60;3.70;;;-0.70;99.90;;;;;;7376593;19;20676;-79
2023/02/28 03:56:48;;;;;;;5.70;4.00;;;-0.80;99.90;;;;;;7383124;19;20751;-81
2023/02/28 03:59:19;;;;;;;7.60;3.92;;;-0.80;99.90;;;;;;7381045;19;20321;-78
2023/02/28 04:01:46;;;;;;;6.15;3.78;;;-0.90;99.90;;;;;;7378375;19;20333;-79
2023/02/28 04:04:11;;;;;;;6.30;4.30;;;-0.90;99.90;;;;;;7381637;19;20388;-80
2023/02/28 04:06:37;;;;;;;7.10;4.33;;;-1.00;99.90;;;;;;7383016;19;20412;-79
2023/02/28 04:09:05;;;;;;;5.85;4.32;;;-1.00;99.90;;;;;;7380258;19;20324;-80
2023/02/28 04:11:49;;;;;;;5.33;4.13;;;-1.10;99.90;;;;;;7382817;19;20400;-80
2023/02/28 04:14:15;;;;;;;5.53;3.80;;;-1.20;99.90;;;;;;7383303;19;20388;-80
2023/02/28 04:16:41;;;;;;;7.13;4.20;;;-1.20;99.90;;;;;;7383700;19;20416;-80
2023/02/28 04:19:07;;;;;;;5.40;3.83;;;-1.30;99.90;;;;;;7380387;19;20324;-80
2023/02/28 04:21:38;;;;;;;5.05;3.90;;;-1.30;99.90;;;;;;7381199;19;20327;-81
2023/02/28 04:24:04;;;;;;;7.05;3.85;;;-1.30;99.90;;;;;;7381485;19;20362;-79
2023/02/28 04:26:34;;;;;;;7.27;4.10;;;-1.40;99.90;;;;;;7382025;19;20956;-78
2023/02/28 04:28:59;;;;;;;7.25;4.40;;;-1.40;99.90;;;;;;7380546;19;20354;-80
2023/02/28 04:31:25;;;;;;;4.13;3.47;;;-1.40;99.90;;;;;;7379647;19;20719;-81
2023/02/28 04:33:51;;;;;;;6.13;3.80;;;-1.40;99.90;;;;;;7379844;19;20313;-79
2023/02/28 04:36:17;;;;;;;4.93;4.20;;;-1.40;99.90;;;;;;7380150;19;20895;-78
2023/02/28 04:38:43;;;;;;;5.25;4.03;;;-1.40;99.90;;;;;;7382096;19;20360;-80
2023/02/28 04:41:09;;;;;;;6.40;4.53;;;-1.40;99.90;;;;;;7379987;19;20308;-78
2023/02/28 04:43:34;;;;;;;5.88;3.75;;;-1.50;99.90;;;;;;7379095;19;20328;-79
2023/02/28 04:46:01;;;;;;;7.00;4.53;;;-1.50;99.90;;;;;;7383532;19;20835;-80
2023/02/28 04:48:28;;;;;;;5.87;4.03;;;-1.60;99.90;;;;;;7382598;19;20323;-80
2023/02/28 04:50:53;;;;;;;6.22;4.38;;;-1.60;99.90;;;;;;7382830;19;20313;-81
2023/02/28 04:53:19;;;;;;;6.40;4.27;;;-1.70;99.90;;;;;;7379355;19;20678;-79
2023/02/28 04:55:45;;;;;;;5.77;4.40;;;-1.80;99.90;;;;;;7382927;19;20338;-79
2023/02/28 04:58:11;;;;;;;7.15;4.53;;;-1.80;99.90;;;;;;7381458;19;20951;-79
2023/02/28 05:00:37;;;;;;;6.75;4.20;;;-1.80;99.90;;;;;;7379387;19;20336;-82
2023/02/28 05:03:02;;;;;;;8.47;4.67;;;-1.90;99.90;;;;;;7375248;19;20325;-80
2023/02/28 05:05:28;;;;;;;6.93;4.33;;;-1.90;99.90;;;;;;7381692;19;20324;-79
2023/02/28 05:07:55;;;;;;;6.57;4.57;;;-2.00;99.90;;;;;;7380277;19;20441;-80
2023/02/28 05:10:21;;;;;;;6.27;3.80;;;-2.00;99.90;;;;;;7386397;19;22621;-79
2023/02/28 05:12:47;;;;;;;6.78;4.40;;;-2.10;99.90;;;;;;7378784;19;20352;-77
2023/02/28 05:15:13;;;;;;;5.32;4.20;;;-2.10;99.90;;;;;;7379368;19;20317;-76
2023/02/28 05:17:39;;;;;;;8.18;5.05;;;-2.10;99.90;;;;;;7381676;19;20347;-78
2023/02/28 05:20:05;;;;;;;8.80;4.60;;;-2.10;99.90;;;;;;7381845;19;20312;-78
2023/02/28 05:22:31;;;;;;;5.95;4.32;;;-2.20;99.90;;;;;;7379525;19;20340;-78
2023/02/28 05:24:57;;;;;;;5.63;4.40;;;-2.20;99.90;;;;;;7382765;19;20324;-77
2023/02/28 05:27:23;;;;;;;5.07;4.10;;;-2.30;99.90;;;;;;7378871;19;20334;-78
2023/02/28 05:29:48;;;;;;;6.13;4.25;;;-2.30;99.90;;;;;;7377501;19;20352;-78
2023/02/28 05:32:14;;;;;;;9.77;4.60;;;-2.30;99.90;;;;;;7378620;19;20313;-79
2023/02/28 05:34:40;;;;;;;7.05;4.40;;;-2.20;99.90;;;;;;7379275;19;20773;-82
2023/02/28 05:37:06;;;;;;;6.97;4.47;;;-2.30;99.90;;;;;;7379174;19;20327;-80
2023/02/28 05:39:32;;;;;;;6.82;4.80;;;-2.30;99.90;;;;;;7381182;19;20323;-81
2023/02/28 05:41:57;;;;;;;9.23;4.80;;;-2.30;99.90;;;;;;7381194;19;20387;-80
2023/02/28 05:44:24;;;;;;;6.30;4.53;;;-2.30;99.90;;;;;;7360654;19;20324;-80
2023/02/28 05:46:49;;;;;;;6.28;3.60;;;-2.40;99.90;;;;;;7378609;19;20372;-79
2023/02/28 05:49:15;;;;;;;7.90;4.05;;;-2.30;99.90;;;;;;7377132;19;20432;-84
2023/02/28 05:51:40;;;;;;;6.13;4.73;;;-2.30;99.90;;;;;;7376523;19;20347;-78
2023/02/28 05:54:06;;;;;;;6.30;3.85;;;-2.30;99.90;;;;;;7376673;19;20321;-78
2023/02/28 05:56:34;;;;;;;7.57;4.73;;;-2.30;99.90;;;;;;7378131;19;20339;-78
2023/02/28 05:58:59;;;;;;;7.28;4.50;;;-2.20;99.90;;;;;;7378883;19;20301;-80
2023/02/28 06:01:36;;;;;;;6.72;4.47;;;-2.20;99.90;;;;;;7377322;19;20313;-78
2023/02/28 06:04:02;;;;;;;8.82;4.70;;;-2.20;99.90;;;;;;7275199;19;2004350;-79
2023/02/28 06:06:29;;;;;;;7.38;3.85;;;-2.10;99.90;;;;;;7377631;19;20343;-79
2023/02/28 06:08:55;;;;;;;8.35;4.53;;;-2.10;99.90;;;;;;7368573;19;20388;-82
2023/02/28 06:11:20;;;;;;;5.77;4.40;;;-2.10;99.90;;;;;;7375003;19;20324;-78
2023/02/28 06:13:46;;;;;;;5.87;3.97;;;-2.10;99.90;;;;;;7379284;19;20371;-81
2023/02/28 06:16:13;;;;;;;5.47;4.30;;;-2.10;99.90;;;;;;7378309;19;20313;-79
2023/02/28 06:18:39;;;;;;;6.47;4.75;;;-2.00;99.90;;;;;;7380761;19;20404;-80
2023/02/28 06:21:05;;;;;;;8.32;4.53;;;-2.00;99.90;;;;;;7378730;19;20387;-79
2023/02/28 06:23:30;;;;;;;7.37;4.63;;;-2.00;99.90;;;;;;7381083;19;20313;-79
2023/02/28 06:25:59;;;;;;;7.22;4.70;;;-2.00;99.90;;;;;;7388365;19;20726;-83
2023/02/28 06:28:25;;;;;;;6.63;4.30;;;-2.00;99.90;;;;;;7388208;19;20305;-80
2023/02/28 06:30:51;;;;;;;5.30;3.97;;;-1.90;99.90;;;;;;7387517;19;20650;-79
2023/02/28 06:33:17;;;;;;;6.05;4.35;;;-1.80;99.90;;;;;;7389293;19;20415;-81
2023/02/28 06:35:47;;;;;;;6.22;4.53;;;-1.70;99.90;;;;;;7389622;19;20316;-80
2023/02/28 06:38:12;;;;;;;5.20;4.03;;;-1.70;99.90;;;;;;7390003;19;20317;-79
2023/02/28 06:40:38;;;;;;;7.93;4.60;;;-1.70;99.90;;;;;;7389688;19;20390;-80
2023/02/28 06:43:03;;;;;;;6.70;4.47;;;-1.70;99.90;;;;;;7389902;19;20910;-80
2023/02/28 06:45:29;;;;;;;7.97;4.20;;;-1.60;99.90;;;;;;7389812;19;20405;-79
2023/02/28 06:47:55;;;;;;;9.00;5.37;;;-1.60;99.90;;;;;;7388005;19;20317;-89
2023/02/28 06:50:20;;;;;;;6.07;5.10;;;-1.50;99.90;;;;;;7387965;19;20325;-80
2023/02/28 06:52:46;;;;;;;7.83;5.17;;;-1.50;99.90;;;;;;7389447;19;21128;-80
2023/02/28 06:55:12;;;;;;;7.05;4.53;;;-1.50;99.90;;;;;;7388025;19;20312;-85
2023/02/28 06:57:38;;;;;;;9.30;5.03;;;-1.40;99.90;;;;;;7387417;19;20316;-82
2023/02/28 07:00:07;;;;;;;8.23;4.73;;;-1.40;99.90;;;;;;7390042;19;20372;-82
2023/02/28 07:02:41;;;;;;;5.90;5.07;;;-1.30;99.90;;;;;;7388346;19;20847;-81
2023/02/28 07:05:06;;;;;;;8.98;5.22;;;-1.30;99.90;;;;;;7389175;19;20937;-82
2023/02/28 07:07:32;;;;;;;8.48;5.32;;;-1.30;99.90;;;;;;7389675;19;20313;-80
2023/02/28 07:10:03;;;;;;;5.53;4.47;;;-1.20;99.90;;;;;;7389402;19;20843;-80
2023/02/28 07:12:28;;;;;;;8.13;5.15;;;-1.20;99.90;;;;;;7386625;19;20321;-79
2023/02/28 07:14:55;;;;;;;5.65;4.47;;;-1.10;99.90;;;;;;7386195;19;21174;-79
2023/02/28 07:17:21;;;;;;;7.43;5.03;;;-1.10;99.90;;;;;;7389474;19;20312;-83
2023/02/28 07:19:47;;;;;;;8.57;5.77;;;-1.00;99.90;;;;;;7387358;19;20864;-77
2023/02/28 07:22:12;;;;;;;7.55;4.95;;;-1.00;99.90;;;;;;7385407;19;20866;-80
2023/02/28 07:24:38;;;;;;;7.33;4.30;;;-0.90;99.90;;;;;;7386680;19;20316;-82
2023/02/28 07:27:03;;;;;;;6.05;4.72;;;-0.90;99.90;;;;;;7387618;19;20312;-77
2023/02/28 07:29:29;;;;;;;9.83;5.43;;;-0.90;99.90;;;;;;7387485;19;20396;-79
2023/02/28 07:32:02;;;;;;;10.32;5.35;;;-0.80;99.90;;;;;;7386227;19;20343;-78
2023/02/28 07:34:27;;;;;;;6.30;4.63;;;-0.70;99.90;;;;;;7381667;19;20384;-80
2023/02/28 07:36:55;;;;;;;6.87;5.03;;;-0.70;99.90;;;;;;7387328;19;20363;-77
2023/02/28 07:39:21;;;;;;;6.43;4.30;;;-0.60;99.90;;;;;;7386661;19;20328;-79
2023/02/28 07:41:53;;;;;;;5.60;4.37;;;-0.60;99.90;;;;;;7387665;19;20336;-81
2023/02/28 07:44:18;;;;;;;5.88;4.75;;;-0.50;99.90;;;;;;7387021;19;20325;-78
2023/02/28 07:46:44;;;;;;;8.23;5.20;;;-0.50;99.90;;;;;;7387020;19;20301;-79
2023/02/28 07:49:09;;;;;;;6.05;4.65;;;-0.50;99.90;;;;;;7384053;19;20329;-78
2023/02/28 07:51:36;;;;;;;8.47;5.73;;;-0.40;99.90;;;;;;7388530;19;20340;-84
2023/02/28 07:54:02;;;;;;;9.43;5.95;;;-0.40;99.90;;;;;;7385250;19;20392;-77
2023/02/28 07:56:27;;;;;;;9.55;6.55;;;-0.40;99.90;;;;;;7388669;19;20317;-81
2023/02/28 07:58:53;;;;;;;8.17;6.23;;;-0.40;99.90;;;;;;7388413;19;20312;-78
2023/02/28 08:01:19;;;;;;;9.57;5.72;;;-0.40;99.90;;;;;;7383232;19;20312;-78
2023/02/28 08:03:44;;;;;;;11.07;6.23;;;-0.40;99.90;;;;;;7384018;19;20349;-81
2023/02/28 08:06:17;;;;;;;8.03;5.73;;;-0.30;99.90;;;;;;7383756;19;20409;-78
2023/02/28 08:08:44;;;;;;;8.40;6.28;;;-0.30;99.90;;;;;;7383675;19;20344;-80
2023/02/28 08:11:09;;;;;;;8.93;6.55;;;-0.20;99.90;;;;;;7383360;19;20313;-80
2023/02/28 08:13:35;;;;;;;10.65;6.82;;;-0.20;99.90;;;;;;7384359;19;20301;-79
2023/02/28 08:16:01;;;;;;;8.40;6.10;;;-0.10;99.90;;;;;;7385950;19;20805;-81
2023/02/28 08:18:27;;;;;;;7.30;5.65;;;-0.10;99.90;;;;;;7383725;19;20321;-77
2023/02/28 08:20:52;;;;;;;11.35;6.93;;;-0.10;99.90;;;;;;7384167;19;20312;-85
2023/02/28 08:23:18;;;;;;;11.03;7.03;;;-0.10;99.90;;;;;;7383640;19;20869;-80
2023/02/28 08:25:44;;;;;;;10.95;7.18;;;-0.10;99.90;;;;;;7384232;19;20839;-82
2023/02/28 08:28:10;;;;;;;9.55;5.60;;;-0.10;99.90;;;;;;7386389;19;20297;-80
2023/02/28 08:30:42;;;;;;;6.73;5.10;;;0.00;99.90;;;;;;7383025;19;20304;-82
2023/02/28 08:33:08;;;;;;;9.88;6.57;;;0.00;99.90;;;;;;7388698;19;20342;-78
2023/02/28 08:35:35;;;;;;;8.90;5.57;;;0.00;99.90;;;;;;7386191;19;20839;-83
2023/02/28 08:38:01;;;;;;;8.63;6.18;;;0.00;99.90;;;;;;7384152;19;20346;-77
2023/02/28 08:40:27;;;;;;;6.80;5.37;;;0.10;99.90;;;;;;7383586;19;20312;-79
2023/02/28 08:42:52;;;;;;;7.38;5.15;;;0.10;99.90;;;;;;7385270;19;20888;-82
2023/02/28 08:45:18;;;;;;;8.13;6.73;;;0.20;99.90;;;;;;7383560;19;20309;-78
2023/02/28 08:47:43;;;;;;;8.13;5.78;;;0.20;99.90;;;;;;7383034;19;20313;-83
2023/02/28 08:50:09;;;;;;;15.43;8.67;;;0.20;99.90;;;;;;7383118;19;20650;-79
2023/02/28 08:52:35;;;;;;;19.55;10.70;;;0.30;99.90;;;;;;7382228;19;20358;-79
2023/02/28 08:55:00;;;;;;;12.43;8.02;;;0.30;99.90;;;;;;7383828;19;20444;-77
2023/02/28 08:57:32;;;;;;;9.93;6.70;;;0.30;99.90;;;;;;7383210;19;20313;-79
2023/02/28 08:59:58;;;;;;;13.60;7.28;;;0.20;99.90;;;;;;7384045;19;20316;-79
2023/02/28 09:02:25;;;;;;;9.07;6.60;;;0.30;99.90;;;;;;7384401;19;20330;-82
2023/02/28 09:04:51;;;;;;;8.80;6.15;;;0.20;99.90;;;;;;7383313;19;20365;-79
2023/02/28 09:07:17;;;;;;;7.47;5.83;;;0.30;99.90;;;;;;7384709;19;20328;-80
2023/02/28 09:09:55;;;;;;;8.00;5.50;;;0.30;99.90;;;;;;7383681;19;20325;-82
2023/02/28 09:12:27;;;;;;;9.95;5.90;;;0.30;99.90;;;;;;7384479;19;20356;-79
2023/02/28 09:14:53;;;;;;;7.18;5.50;;;0.40;99.90;;;;;;7382143;19;20309;-78
2023/02/28 09:17:20;;;;;;;9.00;6.17;;;0.40;99.90;;;;;;7383325;19;20324;-81
2023/02/28 09:19:47;;;;;;;8.45;6.40;;;0.50;99.90;;;;;;7381795;19;20325;-81
2023/02/28 09:22:13;;;;;;;8.98;5.72;;;0.50;99.90;;;;;;7378396;19;20353;-78
2023/02/28 09:24:38;;;;;;;6.47;5.13;;;0.50;99.90;;;;;;7377898;19;20423;-77
2023/02/28 09:27:04;;;;;;;6.97;5.03;;;0.50;99.90;;;;;;7381083;19;21025;-81
2023/02/28 09:29:32;;;;;;;6.28;4.50;;;0.60;99.90;;;;;;7382927;19;20942;-80
2023/02/28 09:31:58;;;;;;;7.65;5.00;;;0.70;99.90;;;;;;7382421;19;20955;-79
2023/02/28 09:34:25;;;;;;;4.57;3.80;;;0.70;99.90;;;;;;7382070;19;20305;-80
2023/02/28 09:36:54;;;;;;;7.13;4.78;;;0.70;99.90;;;;;;7381256;19;20337;-79
2023/02/28 09:39:23;;;;;;;6.72;4.63;;;0.80;99.90;;;;;;7383575;19;20345;-80
2023/02/28 09:41:51;;;;;;;6.80;4.28;;;0.80;99.90;;;;;;7381149;19;20451;-80
2023/02/28 09:44:50;;;;;;;6.65;4.05;;;0.80;99.90;;;;;;7381900;19;20324;-83
2023/02/28 09:47:27;;;;;;;5.33;3.80;;;0.90;99.90;;;;;;7275362;19;2020065;-82
2023/02/28 09:49:55;;;;;;;5.50;4.00;;;0.90;99.90;;;;;;7382149;19;20356;-79
2023/02/28 09:52:23;;;;;;;4.63;3.45;;;1.00;99.90;;;;;;7380391;19;20312;-84
2023/02/28 09:54:52;;;;;;;4.13;3.33;;;1.00;99.90;;;;;;7380023;19;20408;-79
2023/02/28 09:57:38;;;;;;;3.07;2.53;;;1.10;99.90;;;;;;7381763;19;20332;-78
2023/02/28 10:00:16;;;;;;;4.57;3.20;;;1.30;99.90;;;;;;7283774;19;2004705;-82
2023/02/28 10:03:06;;;;;;;3.20;2.70;;;1.40;99.90;;;;;;7388687;19;20319;-79
2023/02/28 10:05:59;;;;;;;3.65;2.58;;;1.60;99.90;;;;;;7387559;19;20387;-78
2023/02/28 10:08:41;;;;;;;4.35;3.13;;;1.80;99.90;;;;;;7286309;19;2004340;-80
2023/02/28 10:11:07;;;;;;;3.67;2.90;;;1.80;99.90;;;;;;7285712;19;2004558;-76
2023/02/28 10:13:52;;;;;;;3.33;2.70;;;1.90;99.90;;;;;;7386807;19;20690;-81
2023/02/28 10:16:35;;;;;;;3.97;2.70;;;1.90;99.90;;;;;;7386922;19;20305;-77
2023/02/28 10:19:46;;;;;;;4.13;3.15;;;2.00;99.90;;;;;;7387623;19;20881;-83
2023/02/28 10:22:31;;;;;;;5.25;3.40;;;2.00;99.90;;;;;;7181477;19;2018992;-79
2023/02/28 10:24:59;;;;;;;4.03;2.75;;;1.90;99.90;;;;;;7387742;19;20320;-79
2023/02/28 10:27:31;;;;;;;2.88;2.63;;;2.00;99.90;;;;;;7388789;19;21055;-78
2023/02/28 10:29:59;;;;;;;3.72;3.20;;;2.10;99.90;;;;;;7387708;19;20308;-79
2023/02/28 10:32:34;;;;;;;5.32;3.65;;;2.20;99.90;;;;;;7387800;19;20301;-77
2023/02/28 10:35:13;;;;;;;7.18;4.60;;;2.20;99.90;;;;;;7387307;19;20397;-82
2023/02/28 10:37:40;;;;;;;3.65;3.35;;;2.10;99.90;;;;;;7284626;19;2017795;-78
2023/02/28 10:40:08;;;;;;;4.90;3.80;;;2.10;99.90;;;;;;7387395;19;21062;-85
2023/02/28 10:42:38;;;;;;;6.15;3.90;;;2.10;99.90;;;;;;7388163;19;20309;-82
2023/02/28 10:45:05;;;;;;;4.50;3.58;;;2.20;99.90;;;;;;7389097;19;20321;-80
2023/02/28 10:47:31;;;;;;;6.38;3.80;;;2.30;99.90;;;;;;7389769;19;20305;-79
2023/02/28 10:49:56;;;;;;;5.27;3.27;;;2.50;99.90;;;;;;7388413;19;20305;-81
2023/02/28 10:52:34;;;;;;;5.27;3.77;;;2.60;99.90;;;;;;7387314;19;21157;-81
2023/02/28 10:55:20;;;;;;;5.38;3.75;;;2.60;99.90;;;;;;7385174;19;20316;-81
2023/02/28 10:57:47;;;;;;;4.25;3.53;;;2.60;99.90;;;;;;7243381;19;2004204;-78
2023/02/28 11:00:19;;;;;;;3.70;3.22;;;2.70;99.90;;;;;;7359483;19;20317;-79
2023/02/28 11:02:46;;;;;;;4.23;3.23;;;2.70;99.90;;;;;;7389283;19;20444;-85
2023/02/28 11:05:31;;;;;;;5.30;3.70;;;2.80;99.90;;;;;;7388835;19;20312;-83
2023/02/28 11:07:59;;;;;;;4.78;3.55;;;2.80;99.90;;;;;;7393833;19;20640;-84
2023/02/28 11:10:26;;;;;;;4.38;3.22;;;2.90;99.90;;;;;;7390289;19;20309;-80
2023/02/28 11:12:55;;;;;;;4.72;3.40;;;2.90;99.90;;;;;;7382561;19;20341;-79
2023/02/28 11:15:25;;;;;;;4.25;3.30;;;3.00;99.90;;;;;;7384621;19;20320;-82
2023/02/28 11:21:08;;;;;;;5.10;3.30;;;3.40;99.90;;;;;;7398115;19;20342;-86
2023/02/28 11:23:34;;;;;;;4.80;3.13;;;4.00;99.90;;;;;;7400834;19;20316;-86
2023/02/28 11:26:02;;;;;;;5.07;3.28;;;4.20;99.90;;;;;;7398734;19;20528;-87
2023/02/28 11:28:32;;;;;;;4.22;3.13;;;4.50;99.90;;;;;;7399061;19;20321;-87
2023/02/28 11:31:02;;;;;;;4.33;3.20;;;4.80;99.90;;;;;;7395936;19;20333;-86
2023/02/28 11:33:30;;;;;;;4.47;3.05;;;4.80;99.90;;;;;;7392011;19;20353;-87
2023/02/28 11:36:02;;;;;;;4.63;3.17;;;4.70;99.90;;;;;;7393476;19;20378;-84
2023/02/28 11:38:29;;;;;;;4.30;2.53;;;4.70;99.90;;;;;;7389885;19;20325;-86
2023/02/28 11:40:55;;;;;;;7.53;3.40;;;4.70;99.90;;;;;;7369268;19;20323;-80
2023/02/28 11:43:27;;;;;;;3.28;2.40;;;5.20;99.90;;;;;;7389622;19;20878;-81
2023/02/28 11:46:24;;;;;;;3.75;2.53;;;5.40;99.90;;;;;;7390387;19;20356;-78
2023/02/28 11:48:50;;;;;;;4.43;2.72;;;5.40;99.90;;;;;;7282952;19;2004125;-79
2023/02/28 11:51:27;;;;;;;2.75;2.35;;;5.30;99.90;;;;;;7385690;19;20308;-79
2023/02/28 11:54:17;;;;;;;5.07;2.67;;;5.40;99.90;;;;;;7386116;19;20337;-86
2023/02/28 11:57:02;;;;;;;4.05;2.67;;;5.60;99.90;;;;;;7280936;19;2004380;-83
2023/02/28 11:59:39;;;;;;;3.90;2.28;;;5.50;99.90;;;;;;7388285;19;20344;-89
2023/02/28 12:02:27;;;;;;;2.85;2.38;;;5.30;99.90;;;;;;7280709;19;2006158;-84
2023/02/28 12:05:21;;;;;;;3.88;2.15;;;5.10;99.90;;;;;;7380197;19;20380;-81
2023/02/28 12:08:03;;;;;;;4.93;3.15;;;4.90;99.90;;;;;;7284016;19;2004457;-83
2023/02/28 12:10:30;;;;;;;6.65;4.40;;;4.70;99.90;;;;;;7385328;19;20403;-82
2023/02/28 12:13:15;;;;;;;5.25;4.40;;;4.90;99.90;;;;;;7388492;19;20329;-81
2023/02/28 12:15:46;;;;;;;5.25;3.70;;;5.00;99.90;;;;;;7283513;19;2010644;-83
2023/02/28 12:18:22;;;;;;;3.17;2.70;;;5.00;99.90;;;;;;7386720;19;20312;-84
2023/02/28 12:21:27;;;;;;;6.60;2.70;;;5.10;99.90;;;;;;7382940;19;20362;-85
2023/02/28 12:24:17;;;;;;;3.25;2.35;;;5.10;99.90;;;;;;7283745;19;2004375;-81
2023/02/28 12:26:46;;;;;;;2.90;2.20;;;5.20;99.90;;;;;;7283927;19;2004533;-78
2023/02/28 12:29:35;;;;;;;3.30;2.47;;;5.30;99.90;;;;;;7386287;19;20341;-84
2023/02/28 12:32:06;;;;;;;2.83;2.40;;;5.50;99.90;;;;;;7380845;19;20340;-79
2023/02/28 12:34:44;;;;;;;4.18;2.47;;;6.00;99.90;;;;;;7382001;19;20851;-83
2023/02/28 12:37:25;;;;;;;2.53;2.20;;;6.00;99.90;;;;;;7277570;19;2004547;-79
2023/02/28 12:39:55;;;;;;;3.28;2.58;;;6.40;99.90;;;;;;7379690;19;20368;-83
2023/02/28 12:42:28;;;;;;;2.65;2.40;;;6.40;99.90;;;;;;7381931;19;20336;-82
2023/02/28 12:45:01;;;;;;;4.90;2.58;;;6.40;99.90;;;;;;7383883;19;20308;-82
2023/02/28 12:47:26;;;;;;;5.43;3.00;;;6.20;99.90;;;;;;7385843;19;20343;-80
2023/02/28 12:49:58;;;;;;;3.15;2.50;;;6.40;99.90;;;;;;7380379;19;20305;-84
2023/02/28 12:52:52;;;;;;;4.65;2.70;;;6.70;99.90;;;;;;7384478;19;20323;-81
2023/02/28 12:55:42;;;;;;;4.95;2.90;;;6.90;99.90;;;;;;7276904;19;2004431;-81
2023/02/28 12:58:18;;;;;;;4.28;2.80;;;7.10;99.90;;;;;;7282600;19;2004513;-82
2023/02/28 13:01:05;;;;;;;3.53;3.13;;;7.20;99.90;;;;;;7380389;19;20332;-80
2023/02/28 13:03:52;;;;;;;4.30;3.25;;;7.10;99.90;;;;;;7389234;19;20349;-87
2023/02/28 13:06:27;;;;;;;4.95;3.20;;;7.20;99.90;;;;;;7290439;19;2004373;-80
2023/02/28 13:09:08;;;;;;;3.95;3.17;;;7.20;99.90;;;;;;7400037;19;20443;-86